createdAt,value
2023-02-03T00:00:30.465Z,7.79
2023-02-03T00:02:57.009Z,7.80
2023-02-03T00:05:24.133Z,7.82
2023-02-03T00:07:50.802Z,7.82
2023-02-03T00:10:21.409Z,7.81
2023-02-03T00:12:50.330Z,7.81
2023-02-03T00:15:16.953Z,7.82
2023-02-03T00:17:43.436Z,7.80
2023-02-03T00:20:10.552Z,7.81
2023-02-03T00:22:37.059Z,7.80
2023-02-03T00:25:04.068Z,7.83
2023-02-03T00:27:30.683Z,7.83
2023-02-03T00:29:57.115Z,7.85
2023-02-03T00:32:23.573Z,7.84
2023-02-03T00:34:50.073Z,7.85
2023-02-03T00:37:16.448Z,7.87
2023-02-03T00:39:42.837Z,7.87
2023-02-03T00:42:09.248Z,7.88
2023-02-03T00:44:35.667Z,7.87
2023-02-03T00:47:02.081Z,7.88
2023-02-03T00:49:28.491Z,7.86
2023-02-03T00:51:54.894Z,7.86
2023-02-03T00:54:21.339Z,7.89
2023-02-03T00:56:47.737Z,7.93
2023-02-03T00:59:14.142Z,7.91
2023-02-03T01:01:40.508Z,7.94
2023-02-03T01:04:06.944Z,7.97
2023-02-03T01:06:33.407Z,7.94
2023-02-03T01:09:02.280Z,7.91
2023-02-03T01:11:29.132Z,7.93
2023-02-03T01:13:59.260Z,7.89
2023-02-03T01:16:27.639Z,7.91
2023-02-03T01:18:55.320Z,7.89
2023-02-03T01:21:24.680Z,7.87
2023-02-03T01:23:51.941Z,7.88
2023-02-03T01:26:21.444Z,7.90
2023-02-03T01:28:58.846Z,7.90
2023-02-03T01:31:28.113Z,7.90
2023-02-03T01:33:55.327Z,7.90
2023-02-03T01:36:24.439Z,7.87
2023-02-03T01:38:50.970Z,7.89
2023-02-03T01:41:20.285Z,7.87
2023-02-03T01:43:49.629Z,7.91
2023-02-03T01:46:24.567Z,7.89
2023-02-03T01:48:53.132Z,7.90
2023-02-03T01:51:20.571Z,7.87
2023-02-03T01:53:46.994Z,7.86
2023-02-03T01:56:13.707Z,7.88
2023-02-03T01:58:42.835Z,7.87
2023-02-03T02:01:09.329Z,7.87
2023-02-03T02:03:41.045Z,7.89
2023-02-03T02:06:10.505Z,7.90
2023-02-03T02:08:38.706Z,7.89
2023-02-03T02:11:05.892Z,7.87
2023-02-03T02:13:35.039Z,7.87
2023-02-03T02:16:21.602Z,7.90
2023-02-03T02:19:05.996Z,7.88
2023-02-03T02:21:41.309Z,7.87
2023-02-03T02:24:32.395Z,7.89
2023-02-03T02:27:11.010Z,7.95
2023-02-03T02:29:55.833Z,7.94
2023-02-03T02:32:36.995Z,7.91
2023-02-03T02:35:37.197Z,7.93
2023-02-03T02:38:18.644Z,7.96
2023-02-03T02:41:08.347Z,7.97
2023-02-03T02:43:45.890Z,7.97
2023-02-03T02:46:17.388Z,7.97
2023-02-03T02:49:06.873Z,7.96
2023-02-03T02:51:34.984Z,7.96
2023-02-03T02:54:05.718Z,7.98
2023-02-03T02:56:34.410Z,7.97
2023-02-03T02:59:04.609Z,7.95
2023-02-03T03:01:31.020Z,7.99
2023-02-03T03:04:00.332Z,7.95
2023-02-03T03:06:34.707Z,7.95
2023-02-03T03:09:09.459Z,8.00
2023-02-03T03:11:41.801Z,8.00
2023-02-03T03:14:10.920Z,8.00
2023-02-03T03:16:39.369Z,8.02
2023-02-03T03:19:12.405Z,7.99
2023-02-03T03:21:47.613Z,8.00
2023-02-03T03:24:19.506Z,8.01
2023-02-03T03:26:54.097Z,8.03
2023-02-03T03:29:31.165Z,8.05
2023-02-03T03:31:58.424Z,8.01
2023-02-03T03:34:24.977Z,8.01
2023-02-03T03:36:59.445Z,7.97
2023-02-03T03:39:37.155Z,8.01
2023-02-03T03:42:17.562Z,7.99
2023-02-03T03:44:58.057Z,8.03
2023-02-03T03:48:02.706Z,8.07
2023-02-03T03:50:33.015Z,8.09
2023-02-03T03:53:02.525Z,8.07
2023-02-03T03:55:32.986Z,8.05
2023-02-03T03:58:04.769Z,8.05
2023-02-03T04:00:34.708Z,8.09
2023-02-03T04:03:07.630Z,8.05
2023-02-03T04:05:34.747Z,8.05
2023-02-03T04:08:02.879Z,8.09
2023-02-03T04:10:41.057Z,8.06
2023-02-03T04:13:09.407Z,8.09
2023-02-03T04:15:36.234Z,8.05
2023-02-03T04:18:03.131Z,8.09
2023-02-03T04:20:31.203Z,8.09
2023-02-03T04:22:57.994Z,8.07
2023-02-03T04:25:25.293Z,8.06
2023-02-03T04:27:51.915Z,8.07
2023-02-03T04:30:18.653Z,8.10
2023-02-03T04:32:46.288Z,8.09
2023-02-03T04:35:13.685Z,8.08
2023-02-03T04:37:40.400Z,8.11
2023-02-03T04:40:07.924Z,8.12
2023-02-03T04:42:37.662Z,8.12
2023-02-03T04:45:05.007Z,8.12
2023-02-03T04:47:31.428Z,8.15
2023-02-03T04:49:57.908Z,8.14
2023-02-03T04:52:24.297Z,8.12
2023-02-03T04:54:50.674Z,8.15
2023-02-03T04:57:17.065Z,8.16
2023-02-03T04:59:43.558Z,8.13
2023-02-03T05:02:10.163Z,8.14
2023-02-03T05:04:36.567Z,8.14
2023-02-03T05:07:03.008Z,8.13
2023-02-03T05:09:29.801Z,8.16
2023-02-03T05:11:56.162Z,8.12
2023-02-03T05:14:22.536Z,8.13
2023-02-03T05:16:49.051Z,8.13
2023-02-03T05:19:15.435Z,8.12
2023-02-03T05:21:41.888Z,8.12
2023-02-03T05:24:08.568Z,8.09
2023-02-03T05:26:36.121Z,8.10
2023-02-03T05:29:03.565Z,8.11
2023-02-03T05:31:30.216Z,8.13
2023-02-03T05:33:56.595Z,8.12
2023-02-03T05:36:23.066Z,8.13
2023-02-03T05:38:49.516Z,8.07
2023-02-03T05:41:34.352Z,8.10
2023-02-03T05:44:00.801Z,8.08
2023-02-03T05:46:27.209Z,8.09
2023-02-03T05:48:53.684Z,8.06
2023-02-03T05:51:20.128Z,8.06
2023-02-03T05:53:46.530Z,8.07
2023-02-03T05:56:12.935Z,8.07
2023-02-03T05:58:39.302Z,8.03
2023-02-03T06:01:05.754Z,8.05
2023-02-03T06:03:32.226Z,8.02
2023-02-03T06:05:58.977Z,8.00
2023-02-03T06:08:28.567Z,8.04
2023-02-03T06:11:00.575Z,8.04
2023-02-03T06:13:27.586Z,7.99
2023-02-03T06:15:54.085Z,8.00
2023-02-03T06:18:20.602Z,7.99
2023-02-03T06:20:47.341Z,8.00
2023-02-03T06:23:13.803Z,7.98
2023-02-03T06:25:40.179Z,7.98
2023-02-03T06:28:06.622Z,7.99
2023-02-03T06:30:33.039Z,7.97
2023-02-03T06:32:59.493Z,7.95
2023-02-03T06:35:25.898Z,7.93
2023-02-03T06:37:52.294Z,7.96
2023-02-03T06:40:18.883Z,7.98
2023-02-03T06:42:47.193Z,7.97
2023-02-03T06:45:14.115Z,7.98
2023-02-03T06:47:41.547Z,7.94
2023-02-03T06:50:09.469Z,7.97
2023-02-03T06:52:36.155Z,7.96
2023-02-03T06:55:03.968Z,7.94
2023-02-03T06:57:30.522Z,7.93
2023-02-03T06:59:56.913Z,7.91
2023-02-03T07:02:23.397Z,7.94
2023-02-03T07:04:50.249Z,7.98
2023-02-03T07:07:17.246Z,7.95
2023-02-03T07:09:43.795Z,7.94
2023-02-03T07:12:10.366Z,7.93
2023-02-03T07:14:39.163Z,7.94
2023-02-03T07:17:06.959Z,7.95
2023-02-03T07:19:33.520Z,7.96
2023-02-03T07:22:00.185Z,7.98
2023-02-03T07:24:26.566Z,7.98
2023-02-03T07:26:53.301Z,7.98
2023-02-03T07:29:19.774Z,8.00
2023-02-03T07:31:46.311Z,7.97
2023-02-03T07:34:12.881Z,7.94
2023-02-03T07:36:39.285Z,7.98
2023-02-03T07:39:05.745Z,7.95
2023-02-03T07:41:32.225Z,7.93
2023-02-03T07:43:58.700Z,7.94
2023-02-03T07:46:25.150Z,7.98
2023-02-03T07:48:51.565Z,7.95
2023-02-03T07:51:17.994Z,7.99
2023-02-03T07:53:45.190Z,8.02
2023-02-03T07:56:12.066Z,8.04
2023-02-03T07:58:38.772Z,8.05
2023-02-03T08:01:14.121Z,8.14
2023-02-03T08:03:41.236Z,8.07
2023-02-03T08:06:08.729Z,8.08
2023-02-03T08:08:35.473Z,8.07
2023-02-03T08:11:05.157Z,8.11
2023-02-03T08:13:31.623Z,8.16
2023-02-03T08:15:58.191Z,8.19
2023-02-03T08:18:24.916Z,8.19
2023-02-03T08:20:51.431Z,8.20
2023-02-03T08:23:17.986Z,8.21
2023-02-03T08:25:44.486Z,8.25
2023-02-03T08:28:11.116Z,8.27
2023-02-03T08:30:38.393Z,8.34
2023-02-03T08:33:04.845Z,8.37
2023-02-03T08:35:31.380Z,8.37
2023-02-03T08:37:57.861Z,8.38
2023-02-03T08:40:24.445Z,8.44
2023-02-03T08:42:50.948Z,8.44
2023-02-03T08:45:17.430Z,8.47
2023-02-03T08:47:44.050Z,8.52
2023-02-03T08:50:10.939Z,8.51
2023-02-03T08:52:37.564Z,8.52
2023-02-03T08:55:04.347Z,8.54
2023-02-03T08:57:36.038Z,8.56
2023-02-03T09:00:05.215Z,8.57
2023-02-03T09:02:31.791Z,8.55
2023-02-03T09:04:58.594Z,8.61
2023-02-03T09:07:25.846Z,8.62
2023-02-03T09:09:52.526Z,8.65
2023-02-03T09:12:19.039Z,8.68
2023-02-03T09:14:45.612Z,8.72
2023-02-03T09:17:12.240Z,8.77
2023-02-03T09:19:38.756Z,8.77
2023-02-03T09:22:05.350Z,8.82
2023-02-03T09:24:32.109Z,8.85
2023-02-03T09:27:00.981Z,8.86
2023-02-03T09:29:27.574Z,8.83
2023-02-03T09:31:54.335Z,8.86
2023-02-03T09:34:21.888Z,8.91
2023-02-03T09:36:48.909Z,8.99
2023-02-03T09:39:15.829Z,8.98
2023-02-03T09:41:48.323Z,8.99
2023-02-03T09:44:24.252Z,9.01
2023-02-03T09:46:56.968Z,8.98
2023-02-03T09:49:28.634Z,9.00
2023-02-03T09:52:12.351Z,8.97
2023-02-03T09:54:58.346Z,8.99
2023-02-03T09:57:27.932Z,9.03
2023-02-03T09:59:57.616Z,8.98
2023-02-03T10:02:35.385Z,8.99
2023-02-03T10:05:18.023Z,8.99
2023-02-03T10:07:52.731Z,8.97
2023-02-03T10:10:41.303Z,8.99
2023-02-03T10:13:07.641Z,9.00
2023-02-03T10:16:03.063Z,9.00
2023-02-03T10:18:40.831Z,9.04
2023-02-03T10:21:27.517Z,9.02
2023-02-03T10:23:57.025Z,9.00
2023-02-03T10:26:27.570Z,9.01
2023-02-03T10:28:56.655Z,9.02
2023-02-03T10:31:27.724Z,9.05
2023-02-03T10:34:02.045Z,9.07
2023-02-03T10:36:58.070Z,9.08
2023-02-03T10:39:45.118Z,9.05
2023-02-03T10:42:13.422Z,9.12
2023-02-03T10:44:45.918Z,9.16
2023-02-03T10:47:27.182Z,9.18
2023-02-03T10:49:57.143Z,9.22
2023-02-03T10:52:34.013Z,9.24
2023-02-03T10:55:29.070Z,9.29
2023-02-03T10:57:56.483Z,9.31
2023-02-03T11:00:24.189Z,9.31
2023-02-03T11:03:03.544Z,9.36
2023-02-03T11:05:30.106Z,9.43
2023-02-03T11:07:56.763Z,9.55
2023-02-03T11:10:35.834Z,9.44
2023-02-03T11:13:25.647Z,9.43
2023-02-03T11:16:01.193Z,9.45
2023-02-03T11:18:33.769Z,9.44
2023-02-03T11:21:00.404Z,9.51
2023-02-03T11:23:26.998Z,9.55
2023-02-03T11:25:53.547Z,9.59
2023-02-03T11:28:22.003Z,9.63
2023-02-03T11:30:56.657Z,9.60
2023-02-03T11:33:27.739Z,9.62
2023-02-03T11:36:05.458Z,9.60
2023-02-03T11:38:36.737Z,9.65
2023-02-03T11:41:03.533Z,9.65
2023-02-03T11:43:30.567Z,9.64
2023-02-03T11:46:16.200Z,9.73
2023-02-03T11:49:08.849Z,9.67
2023-02-03T11:51:47.030Z,9.72
2023-02-03T11:54:37.720Z,9.78
2023-02-03T11:57:35.299Z,9.86
2023-02-03T12:00:40.631Z,9.89
2023-02-03T12:03:36.857Z,9.95
2023-02-03T12:06:09.146Z,9.96
2023-02-03T12:08:41.536Z,9.94
2023-02-03T12:11:24.033Z,10.01
2023-02-03T12:14:06.444Z,10.12
2023-02-03T12:16:51.723Z,10.12
2023-02-03T12:19:32.562Z,10.41
2023-02-03T12:22:11.393Z,10.10
2023-02-03T12:25:07.044Z,10.21
2023-02-03T12:27:58.222Z,10.13
2023-02-03T12:30:31.249Z,10.03
2023-02-03T12:33:02.884Z,10.12
2023-02-03T12:35:40.747Z,10.08
2023-02-03T12:38:16.410Z,10.09
2023-02-03T12:40:49.431Z,10.05
2023-02-03T12:43:40.627Z,9.98
2023-02-03T12:46:14.695Z,9.98
2023-02-03T12:48:57.829Z,9.90
2023-02-03T12:51:49.961Z,9.81
2023-02-03T12:54:30.763Z,9.59
2023-02-03T12:57:13.837Z,9.73
2023-02-03T12:59:43.457Z,9.60
2023-02-03T13:02:18.434Z,9.54
2023-02-03T13:04:56.016Z,9.60
2023-02-03T13:07:34.629Z,9.48
2023-02-03T13:10:19.514Z,9.49
2023-02-03T13:12:51.765Z,9.30
2023-02-03T13:15:18.158Z,9.27
2023-02-03T13:18:04.016Z,9.49
2023-02-03T13:20:35.924Z,9.53
2023-02-03T13:23:08.191Z,9.40
2023-02-03T13:25:58.085Z,9.33
2023-02-03T13:28:43.915Z,9.32
2023-02-03T13:32:04.434Z,9.41
2023-02-03T13:34:37.053Z,9.33
2023-02-03T13:37:35.172Z,9.31
2023-02-03T13:40:13.093Z,9.36
2023-02-03T13:42:52.380Z,9.37
2023-02-03T13:45:30.567Z,9.41
2023-02-03T13:48:09.327Z,9.35
2023-02-03T13:50:36.968Z,9.49
2023-02-03T13:53:23.204Z,9.55
2023-02-03T13:56:04.712Z,9.47
2023-02-03T13:58:34.883Z,9.39
2023-02-03T14:01:03.275Z,9.44
2023-02-03T14:03:29.709Z,9.42
2023-02-03T14:05:59.293Z,9.31
2023-02-03T14:08:25.852Z,9.52
2023-02-03T14:11:29.623Z,9.41
2023-02-03T14:14:08.355Z,9.48
2023-02-03T14:16:39.406Z,9.41
2023-02-03T14:19:09.539Z,9.37
2023-02-03T14:21:45.848Z,9.47
2023-02-03T14:24:13.181Z,9.44
2023-02-03T14:26:49.313Z,9.71
2023-02-03T14:29:29.794Z,9.49
2023-02-03T14:32:07.995Z,9.42
2023-02-03T14:34:46.837Z,9.51
2023-02-03T14:37:24.332Z,9.37
2023-02-03T14:40:04.615Z,9.37
2023-02-03T14:43:09.746Z,9.30
2023-02-03T14:45:49.066Z,9.33
2023-02-03T14:48:33.995Z,9.30
2023-02-03T14:51:06.726Z,9.23
2023-02-03T14:54:10.358Z,9.29
2023-02-03T14:57:07.685Z,9.35
2023-02-03T14:59:42.937Z,9.29
2023-02-03T15:02:19.687Z,9.28
2023-02-03T15:04:50.416Z,9.28
2023-02-03T15:07:49.382Z,9.29
2023-02-03T15:10:25.168Z,9.26
2023-02-03T15:12:53.821Z,9.24
2023-02-03T15:15:25.981Z,9.25
2023-02-03T15:17:55.371Z,9.19
2023-02-03T15:20:31.432Z,9.13
2023-02-03T15:22:57.945Z,9.12
2023-02-03T15:25:26.470Z,9.11
2023-02-03T15:27:53.189Z,9.08
2023-02-03T15:30:27.867Z,9.03
2023-02-03T15:33:05.249Z,9.03
2023-02-03T15:35:35.540Z,9.00
2023-02-03T15:38:08.353Z,8.97
2023-02-03T15:40:57.712Z,8.90
2023-02-03T15:43:42.058Z,8.93
2023-02-03T15:46:33.689Z,8.86
2023-02-03T15:49:09.172Z,8.89
2023-02-03T15:51:47.659Z,8.84
2023-02-03T15:54:24.273Z,8.94
2023-02-03T15:57:10.773Z,8.95
2023-02-03T15:59:40.925Z,8.98
2023-02-03T16:02:21.315Z,8.85
2023-02-03T16:04:50.174Z,8.82
2023-02-03T16:07:21.002Z,9.01
2023-02-03T16:09:47.650Z,9.02
2023-02-03T16:12:26.060Z,8.94
2023-02-03T16:14:54.814Z,9.09
2023-02-03T16:17:28.728Z,9.02
2023-02-03T16:20:10.546Z,8.97
2023-02-03T16:22:43.619Z,9.01
2023-02-03T16:25:20.179Z,9.00
2023-02-03T16:28:17.774Z,9.02
2023-02-03T16:31:15.414Z,8.98
2023-02-03T16:34:06.116Z,8.91
2023-02-03T16:36:51.176Z,8.93
2023-02-03T16:39:36.298Z,8.90
2023-02-03T16:42:32.077Z,8.83
2023-02-03T16:45:17.661Z,8.75
2023-02-03T16:48:04.636Z,8.59
2023-02-03T16:50:51.852Z,8.88
2023-02-03T16:53:31.970Z,8.88
2023-02-03T16:56:01.648Z,8.82
2023-02-03T16:58:28.370Z,8.68
2023-02-03T17:00:55.374Z,8.66
2023-02-03T17:03:25.723Z,8.66
2023-02-03T17:05:53.071Z,8.79
2023-02-03T17:08:23.095Z,8.71
2023-02-03T17:10:50.209Z,8.49
2023-02-03T17:13:18.685Z,8.49
2023-02-03T17:15:50.499Z,8.41
2023-02-03T17:18:16.945Z,8.38
2023-02-03T17:20:44.705Z,8.42
2023-02-03T17:23:12.285Z,8.40
2023-02-03T17:25:39.674Z,8.37
2023-02-03T17:28:08.311Z,8.35
2023-02-03T17:30:35.636Z,8.37
2023-02-03T17:33:03.945Z,8.31
2023-02-03T17:35:30.700Z,8.41
2023-02-03T17:37:57.417Z,8.50
2023-02-03T17:54:11.768Z,8.27
2023-02-03T17:56:38.490Z,8.30
2023-02-03T17:59:05.723Z,8.28
2023-02-03T18:01:32.331Z,8.31
2023-02-03T18:04:03.572Z,8.22
2023-02-03T18:06:31.546Z,8.19
2023-02-03T18:09:02.433Z,8.21
2023-02-03T18:11:30.557Z,8.23
2023-02-03T18:13:57.169Z,8.19
2023-02-03T18:16:28.953Z,8.14
2023-02-03T18:18:56.700Z,8.04
2023-02-03T18:21:25.462Z,8.06
2023-02-03T18:23:54.110Z,8.17
2023-02-03T18:26:20.900Z,8.18
2023-02-03T18:28:50.702Z,8.20
2023-02-03T18:31:17.755Z,8.16
2023-02-03T18:33:46.177Z,8.15
2023-02-03T18:36:13.210Z,8.14
2023-02-03T18:38:42.324Z,8.09
2023-02-03T18:41:13.485Z,8.12
2023-02-03T18:43:40.117Z,8.07
2023-02-03T18:46:12.027Z,8.08
2023-02-03T18:48:38.934Z,8.00
2023-02-03T18:51:13.981Z,8.08
2023-02-03T18:53:40.474Z,8.11
2023-02-03T18:56:08.593Z,8.11
2023-02-03T18:58:37.144Z,8.17
2023-02-03T19:01:04.013Z,8.16
2023-02-03T19:03:30.743Z,8.13
2023-02-03T19:05:57.158Z,8.06
2023-02-03T19:08:23.575Z,8.04
2023-02-03T19:10:54.439Z,8.14
2023-02-03T19:13:21.026Z,8.13
2023-02-03T19:15:48.759Z,8.17
2023-02-03T19:18:16.065Z,8.19
2023-02-03T19:20:43.843Z,8.13
2023-02-03T19:23:13.034Z,8.12
2023-02-03T19:25:40.035Z,8.15
2023-02-03T19:28:14.262Z,8.13
2023-02-03T19:30:44.392Z,8.15
2023-02-03T19:33:11.089Z,8.17
2023-02-03T19:35:38.531Z,8.14
2023-02-03T19:38:05.408Z,8.11
2023-02-03T19:40:32.078Z,8.12
2023-02-03T19:42:59.198Z,8.00
2023-02-03T19:45:25.895Z,8.01
2023-02-03T19:47:52.526Z,8.06
2023-02-03T19:50:19.077Z,8.05
2023-02-03T19:52:47.169Z,8.07
2023-02-03T19:55:14.211Z,8.12
2023-02-03T19:57:40.604Z,8.09
2023-02-03T20:00:07.749Z,8.08
2023-02-03T20:02:34.199Z,8.04
2023-02-03T20:05:00.793Z,8.04
2023-02-03T20:07:28.596Z,7.98
2023-02-03T20:09:55.252Z,7.99
2023-02-03T20:12:21.635Z,8.04
2023-02-03T20:14:48.079Z,8.04
2023-02-03T20:17:14.569Z,7.97
2023-02-03T20:19:41.005Z,7.92
2023-02-03T20:22:07.444Z,8.00
2023-02-03T20:24:33.937Z,7.92
2023-02-03T20:27:00.562Z,7.94
2023-02-03T20:29:27.016Z,8.00
2023-02-03T20:31:54.793Z,7.98
2023-02-03T20:34:21.346Z,7.99
2023-02-03T20:36:47.735Z,7.92
2023-02-03T20:39:18.746Z,7.99
2023-02-03T20:41:45.578Z,7.91
2023-02-03T20:44:13.012Z,7.95
2023-02-03T20:46:39.765Z,7.98
2023-02-03T20:49:11.717Z,8.02
2023-02-03T20:51:38.285Z,7.92
2023-02-03T20:54:25.122Z,7.94
2023-02-03T20:56:51.965Z,7.95
2023-02-03T20:59:19.551Z,8.00
2023-02-03T21:01:47.039Z,7.99
2023-02-03T21:04:37.442Z,8.02
2023-02-03T21:07:14.678Z,8.06
2023-02-03T21:09:41.090Z,8.05
2023-02-03T21:12:14.049Z,8.08
2023-02-03T21:14:48.783Z,8.05
2023-02-03T21:17:20.827Z,8.01
2023-02-03T21:19:48.001Z,8.04
2023-02-03T21:22:23.702Z,8.01
2023-02-03T21:25:01.308Z,8.08
2023-02-03T21:27:29.451Z,8.08
2023-02-03T21:30:17.277Z,8.11
2023-02-03T21:32:44.025Z,8.07
2023-02-03T21:35:24.705Z,8.04
2023-02-03T21:38:01.917Z,8.08
2023-02-03T21:40:31.635Z,8.10
2023-02-03T21:42:58.717Z,8.04
2023-02-03T21:45:42.388Z,8.01
2023-02-03T21:48:39.731Z,7.96
2023-02-03T21:51:20.755Z,8.02
2023-02-03T21:54:02.604Z,8.03
2023-02-03T21:56:30.087Z,7.98
2023-02-03T21:58:58.769Z,7.96
2023-02-03T22:01:27.945Z,8.00
2023-02-03T22:03:55.642Z,8.00
2023-02-03T22:06:28.162Z,8.08
2023-02-03T22:08:57.059Z,8.04
2023-02-03T22:11:26.179Z,8.06
2023-02-03T22:13:52.947Z,8.09
2023-02-03T22:16:20.402Z,7.94
2023-02-03T22:18:48.286Z,8.05
2023-02-03T22:21:15.693Z,7.99
2023-02-03T22:23:42.350Z,7.92
2023-02-03T22:26:10.033Z,7.93
2023-02-03T22:28:37.096Z,7.91
2023-02-03T22:31:05.077Z,7.98
2023-02-03T22:33:32.046Z,8.07
2023-02-03T22:35:58.492Z,8.04
2023-02-03T22:38:25.318Z,8.03
2023-02-03T22:40:52.551Z,7.99
2023-02-03T22:43:19.212Z,7.90
2023-02-03T22:45:45.660Z,7.84
2023-02-03T22:48:12.204Z,7.98
2023-02-03T22:50:38.901Z,7.99
2023-02-03T22:53:05.989Z,7.96
2023-02-03T22:55:33.022Z,8.01
2023-02-03T22:57:59.547Z,7.99
2023-02-03T23:00:26.586Z,7.89
2023-02-03T23:02:53.412Z,7.87
2023-02-03T23:05:20.277Z,7.94
2023-02-03T23:07:46.905Z,8.00
2023-02-03T23:10:19.600Z,8.03
2023-02-03T23:12:46.226Z,8.01
2023-02-03T23:15:13.701Z,7.98
2023-02-03T23:17:40.318Z,7.96
2023-02-03T23:20:07.846Z,7.91
2023-02-03T23:22:34.249Z,8.01
2023-02-03T23:25:01.012Z,7.91
2023-02-03T23:27:27.439Z,7.92
2023-02-03T23:29:53.921Z,7.89
2023-02-03T23:32:20.454Z,7.86
2023-02-03T23:35:05.317Z,7.92
2023-02-03T23:37:31.995Z,7.93
2023-02-03T23:39:58.373Z,7.82
2023-02-03T23:42:24.823Z,7.84
2023-02-03T23:44:51.361Z,7.80
2023-02-03T23:47:17.770Z,7.82
2023-02-03T23:49:44.229Z,7.78
2023-02-03T23:52:10.644Z,7.80
2023-02-03T23:54:37.076Z,7.82
2023-02-03T23:57:04.856Z,7.83
2023-02-03T23:59:31.695Z,7.81
